createdAt,value
2022-11-14T00:01:09.167Z,99590.09
2022-11-14T00:02:31.953Z,99582.22
2022-11-14T00:03:54.049Z,99583.28
2022-11-14T00:05:16.610Z,99580.88
2022-11-14T00:06:38.906Z,99576.53
2022-11-14T00:08:00.352Z,99581.78
2022-11-14T00:09:26.701Z,99581.84
2022-11-14T00:10:49.572Z,99582.91
2022-11-14T00:12:12.811Z,99575.31
2022-11-14T00:13:35.088Z,99578.81
2022-11-14T00:14:56.581Z,99579.75
2022-11-14T00:16:18.930Z,99580.56
2022-11-14T00:18:14.989Z,99581.41
2022-11-14T00:19:36.109Z,99575.44
2022-11-14T00:20:58.307Z,99578.81
2022-11-14T00:22:19.528Z,99582.06
2022-11-14T00:23:41.720Z,99587.19
2022-11-14T00:25:02.890Z,99588.97
2022-11-14T00:26:25.156Z,99590.78
2022-11-14T00:27:47.762Z,99590.84
2022-11-14T00:29:12.371Z,99591.69
2022-11-14T00:30:34.821Z,99590.94
2022-11-14T00:31:57.129Z,99588.19
2022-11-14T00:33:21.425Z,99585.50
2022-11-14T00:34:43.909Z,99580.31
2022-11-14T00:36:06.863Z,99581.19
2022-11-14T00:37:28.257Z,99586.28
2022-11-14T00:38:54.241Z,99592.22
2022-11-14T00:40:16.480Z,99600.75
2022-11-14T00:41:38.840Z,99593.00
2022-11-14T00:43:02.798Z,99595.50
2022-11-14T00:44:25.249Z,99596.34
2022-11-14T00:45:48.288Z,99592.91
2022-11-14T00:47:10.549Z,99587.88
2022-11-14T00:48:32.027Z,99587.13
2022-11-14T00:49:54.506Z,99594.06
2022-11-14T00:51:16.901Z,99593.22
2022-11-14T00:52:39.288Z,99588.97
2022-11-14T00:54:01.605Z,99581.19
2022-11-14T00:55:24.068Z,99580.41
2022-11-14T00:56:45.428Z,99581.31
2022-11-14T00:58:09.040Z,99586.66
2022-11-14T00:59:30.522Z,99587.56
2022-11-14T01:00:53.494Z,99588.50
2022-11-14T01:02:15.943Z,99583.44
2022-11-14T01:03:38.200Z,99584.31
2022-11-14T01:05:00.804Z,99587.66
2022-11-14T01:06:21.891Z,99576.59
2022-11-14T01:07:44.088Z,99580.09
2022-11-14T01:09:06.282Z,99583.63
2022-11-14T01:10:27.636Z,99586.97
2022-11-14T01:11:49.760Z,99578.25
2022-11-14T01:13:14.198Z,99568.69
2022-11-14T01:14:36.416Z,99570.44
2022-11-14T01:16:02.261Z,99570.34
2022-11-14T01:17:23.328Z,99560.75
2022-11-14T01:18:45.400Z,99562.50
2022-11-14T01:20:07.157Z,99559.16
2022-11-14T01:21:29.279Z,99560.06
2022-11-14T01:22:51.759Z,99555.03
2022-11-14T01:24:12.929Z,99554.28
2022-11-14T01:25:35.202Z,99551.00
2022-11-14T01:26:57.839Z,99551.00
2022-11-14T01:28:21.787Z,99550.16
2022-11-14T01:29:43.159Z,99551.94
2022-11-14T01:31:12.709Z,99541.56
2022-11-14T01:32:35.141Z,99533.88
2022-11-14T01:33:57.561Z,99539.13
2022-11-14T01:35:19.192Z,99534.94
2022-11-14T01:36:41.699Z,99537.59
2022-11-14T01:38:02.891Z,99539.44
2022-11-14T01:39:25.571Z,99541.25
2022-11-14T01:40:47.920Z,99542.16
2022-11-14T01:42:09.059Z,99538.69
2022-11-14T01:43:34.240Z,99538.72
2022-11-14T01:44:56.712Z,99531.88
2022-11-14T01:46:23.297Z,99531.03
2022-11-14T01:47:45.419Z,99532.88
2022-11-14T01:49:15.416Z,99534.69
2022-11-14T01:50:36.503Z,99527.00
2022-11-14T01:52:02.797Z,99530.59
2022-11-14T01:53:25.434Z,99525.44
2022-11-14T01:54:50.081Z,99524.66
2022-11-14T01:56:13.566Z,99521.31
2022-11-14T01:57:38.007Z,99523.94
2022-11-14T01:59:05.148Z,99523.13
2022-11-14T02:00:26.517Z,99519.63
2022-11-14T02:01:51.343Z,99514.47
2022-11-14T02:03:14.311Z,99523.94
2022-11-14T02:04:39.292Z,99518.03
2022-11-14T02:06:01.128Z,99521.44
2022-11-14T02:07:24.560Z,99526.63
2022-11-14T02:08:45.937Z,99529.22
2022-11-14T02:10:11.315Z,99524.88
2022-11-14T02:11:37.961Z,99525.88
2022-11-14T02:12:59.289Z,99524.25
2022-11-14T02:14:23.319Z,99526.00
2022-11-14T02:15:45.900Z,99514.91
2022-11-14T02:17:28.390Z,99522.59
2022-11-14T02:18:50.930Z,99509.72
2022-11-14T02:20:22.220Z,99515.66
2022-11-14T02:21:44.431Z,99518.25
2022-11-14T02:23:05.699Z,99517.41
2022-11-14T02:24:28.050Z,99524.34
2022-11-14T02:25:49.430Z,99514.91
2022-11-14T02:27:11.982Z,99516.59
2022-11-14T02:28:34.152Z,99524.25
2022-11-14T02:29:56.398Z,99519.03
2022-11-14T02:31:18.958Z,99514.59
2022-11-14T02:34:23.261Z,99514.28
2022-11-14T02:35:47.720Z,99517.66
2022-11-14T02:37:09.070Z,99509.72
2022-11-14T02:38:31.963Z,99508.81
2022-11-14T02:39:53.635Z,99507.03
2022-11-14T02:41:16.739Z,99510.47
2022-11-14T02:42:38.316Z,99505.25
2022-11-14T02:44:00.459Z,99504.31
2022-11-14T02:45:21.597Z,99497.47
2022-11-14T02:46:43.837Z,99495.72
2022-11-14T02:48:07.276Z,99489.75
2022-11-14T02:49:29.418Z,99488.09
2022-11-14T02:50:53.361Z,99498.44
2022-11-14T02:52:14.381Z,99495.09
2022-11-14T02:53:36.808Z,99495.09
2022-11-14T02:54:58.019Z,99492.66
2022-11-14T02:56:21.206Z,99497.91
2022-11-14T02:57:42.846Z,99492.66
2022-11-14T02:59:05.313Z,99491.75
2022-11-14T03:00:28.297Z,99491.75
2022-11-14T03:01:49.693Z,99490.06
2022-11-14T03:03:11.844Z,99496.09
2022-11-14T03:04:33.272Z,99490.06
2022-11-14T03:06:01.947Z,99485.97
2022-11-14T03:07:23.123Z,99486.94
2022-11-14T03:08:45.597Z,99488.94
2022-11-14T03:10:08.177Z,99482.31
2022-11-14T03:11:33.599Z,99474.78
2022-11-14T03:12:56.272Z,99479.19
2022-11-14T03:14:18.778Z,99474.91
2022-11-14T03:15:41.263Z,99479.25
2022-11-14T03:17:02.788Z,99481.09
2022-11-14T03:18:25.435Z,99476.00
2022-11-14T03:19:47.941Z,99483.81
2022-11-14T03:21:12.139Z,99484.75
2022-11-14T03:22:34.470Z,99482.16
2022-11-14T03:23:56.811Z,99481.22
2022-11-14T03:25:19.453Z,99476.88
2022-11-14T03:26:40.759Z,99474.38
2022-11-14T03:28:02.787Z,99474.38
2022-11-14T03:29:24.068Z,99474.47
2022-11-14T03:30:48.001Z,99476.22
2022-11-14T03:32:09.138Z,99486.56
2022-11-14T03:33:31.527Z,99482.38
2022-11-14T03:34:53.671Z,99483.44
2022-11-14T03:36:16.548Z,99487.94
2022-11-14T03:37:40.120Z,99480.31
2022-11-14T03:39:11.262Z,99476.88
2022-11-14T03:40:32.639Z,99481.22
2022-11-14T03:41:54.801Z,99477.72
2022-11-14T03:43:16.308Z,99478.50
2022-11-14T03:44:38.872Z,99469.81
2022-11-14T03:46:00.554Z,99470.56
2022-11-14T03:47:22.643Z,99481.75
2022-11-14T03:48:44.177Z,99478.34
2022-11-14T03:50:07.636Z,99480.16
2022-11-14T03:51:29.036Z,99473.38
2022-11-14T03:52:51.489Z,99479.34
2022-11-14T03:54:15.340Z,99479.38
2022-11-14T03:55:37.128Z,99475.91
2022-11-14T03:56:59.460Z,99470.75
2022-11-14T03:58:21.044Z,99473.47
2022-11-14T03:59:43.240Z,99472.72
2022-11-14T04:01:05.793Z,99464.25
2022-11-14T04:02:28.031Z,99473.75
2022-11-14T04:03:50.109Z,99472.94
2022-11-14T04:05:11.568Z,99473.84
2022-11-14T04:06:36.410Z,99478.09
2022-11-14T04:07:57.671Z,99475.50
2022-11-14T04:09:21.512Z,99470.41
2022-11-14T04:10:43.519Z,99461.88
2022-11-14T04:12:10.064Z,99467.19
2022-11-14T04:13:35.578Z,99462.19
2022-11-14T04:14:58.479Z,99463.94
2022-11-14T04:16:21.169Z,99462.25
2022-11-14T04:17:42.618Z,99463.97
2022-11-14T04:19:05.513Z,99455.47
2022-11-14T04:20:27.699Z,99456.31
2022-11-14T04:21:50.128Z,99453.63
2022-11-14T04:23:11.516Z,99459.59
2022-11-14T04:24:35.290Z,99455.16
2022-11-14T04:25:57.085Z,99455.97
2022-11-14T04:27:19.702Z,99458.53
2022-11-14T04:28:41.784Z,99455.03
2022-11-14T04:30:04.372Z,99452.38
2022-11-14T04:31:27.028Z,99453.19
2022-11-14T04:32:49.409Z,99459.22
2022-11-14T04:34:12.111Z,99460.03
2022-11-14T04:35:33.582Z,99457.41
2022-11-14T04:36:55.900Z,99456.41
2022-11-14T04:38:18.508Z,99465.00
2022-11-14T04:39:42.052Z,99457.19
2022-11-14T04:41:04.509Z,99460.53
2022-11-14T04:42:26.492Z,99458.78
2022-11-14T04:43:50.927Z,99462.97
2022-11-14T04:45:13.901Z,99461.13
2022-11-14T04:46:36.674Z,99467.16
2022-11-14T04:47:57.850Z,99455.97
2022-11-14T04:49:21.478Z,99450.88
2022-11-14T04:50:43.641Z,99456.97
2022-11-14T04:52:05.943Z,99456.88
2022-11-14T04:53:28.320Z,99450.03
2022-11-14T04:54:53.659Z,99450.88
2022-11-14T04:56:16.062Z,99447.44
2022-11-14T04:57:39.132Z,99454.28
2022-11-14T04:59:00.793Z,99449.13
2022-11-14T05:00:23.282Z,99444.78
2022-11-14T05:01:45.753Z,99444.78
2022-11-14T05:03:07.101Z,99439.50
2022-11-14T05:04:29.594Z,99441.19
2022-11-14T05:05:51.016Z,99443.72
2022-11-14T05:07:13.858Z,99440.22
2022-11-14T05:08:36.689Z,99444.47
2022-11-14T05:10:01.044Z,99436.63
2022-11-14T05:11:28.087Z,99441.78
2022-11-14T05:12:54.929Z,99434.94
2022-11-14T05:14:17.204Z,99428.94
2022-11-14T05:15:38.376Z,99427.28
2022-11-14T05:17:01.430Z,99429.78
2022-11-14T05:18:23.979Z,99440.97
2022-11-14T05:19:46.845Z,99434.03
2022-11-14T05:21:11.921Z,99438.47
2022-11-14T05:22:34.682Z,99436.94
2022-11-14T05:23:55.875Z,99439.69
2022-11-14T05:25:19.910Z,99440.56
2022-11-14T05:26:42.500Z,99438.06
2022-11-14T05:28:04.835Z,99441.56
2022-11-14T05:29:26.316Z,99439.81
2022-11-14T05:30:48.413Z,99441.50
2022-11-14T05:32:15.062Z,99435.41
2022-11-14T05:33:38.460Z,99437.09
2022-11-14T05:35:00.639Z,99434.44
2022-11-14T05:36:23.431Z,99431.00
2022-11-14T05:37:45.730Z,99435.34
2022-11-14T05:39:07.896Z,99429.38
2022-11-14T05:40:31.530Z,99432.06
2022-11-14T05:41:53.959Z,99429.47
2022-11-14T05:43:16.451Z,99435.56
2022-11-14T05:44:38.688Z,99432.97
2022-11-14T05:46:01.128Z,99426.19
2022-11-14T05:47:23.412Z,99429.63
2022-11-14T05:48:46.193Z,99437.47
2022-11-14T05:50:09.351Z,99434.03
2022-11-14T05:51:31.620Z,99437.53
2022-11-14T05:52:53.959Z,99440.13
2022-11-14T05:54:16.499Z,99437.53
2022-11-14T05:55:40.390Z,99443.47
2022-11-14T05:57:02.749Z,99440.75
2022-11-14T05:58:25.230Z,99448.34
2022-11-14T05:59:47.769Z,99438.84
2022-11-14T06:01:11.598Z,99443.84
2022-11-14T06:02:34.179Z,99451.47
2022-11-14T06:03:56.723Z,99441.88
2022-11-14T06:05:18.954Z,99440.03
2022-11-14T06:06:40.421Z,99445.16
2022-11-14T06:08:02.902Z,99440.75
2022-11-14T06:09:25.211Z,99427.78
2022-11-14T06:10:48.825Z,99425.22
2022-11-14T06:12:11.049Z,99438.97
2022-11-14T06:13:33.982Z,99438.97
2022-11-14T06:14:56.436Z,99437.31
2022-11-14T06:16:20.173Z,99446.00
2022-11-14T06:17:42.381Z,99433.91
2022-11-14T06:19:05.570Z,99430.38
2022-11-14T06:20:28.291Z,99440.75
2022-11-14T06:21:50.742Z,99439.81
2022-11-14T06:23:13.442Z,99431.16
2022-11-14T06:24:35.622Z,99426.81
2022-11-14T06:26:01.639Z,99430.31
2022-11-14T06:27:23.868Z,99436.41
2022-11-14T06:28:45.193Z,99433.66
2022-11-14T06:30:08.161Z,99431.81
2022-11-14T06:31:30.729Z,99435.19
2022-11-14T06:32:58.653Z,99448.06
2022-11-14T06:34:24.182Z,99445.56
2022-11-14T06:35:46.612Z,99444.72
2022-11-14T06:37:09.046Z,99449.09
2022-11-14T06:38:33.204Z,99446.53
2022-11-14T06:39:55.963Z,99450.78
2022-11-14T06:41:20.875Z,99453.38
2022-11-14T06:42:42.064Z,99456.88
2022-11-14T06:44:04.113Z,99461.22
2022-11-14T06:45:26.502Z,99468.91
2022-11-14T06:46:48.910Z,99461.22
2022-11-14T06:48:11.174Z,99457.72
2022-11-14T06:49:37.909Z,99449.09
2022-11-14T06:51:04.010Z,99450.88
2022-11-14T06:52:26.792Z,99450.88
2022-11-14T06:53:49.177Z,99445.69
2022-11-14T06:55:11.374Z,99449.03
2022-11-14T06:56:35.649Z,99453.22
2022-11-14T06:57:56.812Z,99455.59
2022-11-14T06:59:19.367Z,99445.06
2022-11-14T07:00:40.670Z,99453.59
2022-11-14T07:02:02.948Z,99442.25
2022-11-14T07:03:25.636Z,99441.34
2022-11-14T07:04:47.921Z,99440.44
2022-11-14T07:06:10.851Z,99436.09
2022-11-14T07:07:34.294Z,99436.19
2022-11-14T07:08:57.312Z,99433.66
2022-11-14T07:10:19.578Z,99438.81
2022-11-14T07:11:45.570Z,99435.41
2022-11-14T07:13:09.749Z,99444.00
2022-11-14T07:14:32.200Z,99443.16
2022-11-14T07:15:55.155Z,99444.91
2022-11-14T07:17:17.533Z,99439.59
2022-11-14T07:18:40.090Z,99452.31
2022-11-14T07:20:02.332Z,99454.66
2022-11-14T07:21:24.547Z,99456.25
2022-11-14T07:22:46.719Z,99458.69
2022-11-14T07:24:09.319Z,99459.53
2022-11-14T07:25:31.511Z,99457.69
2022-11-14T07:26:55.513Z,99456.78
2022-11-14T07:28:17.861Z,99454.09
2022-11-14T07:29:40.277Z,99453.03
2022-11-14T07:31:04.659Z,99458.06
2022-11-14T07:32:27.046Z,99453.72
2022-11-14T07:33:49.661Z,99447.63
2022-11-14T07:35:11.831Z,99450.22
2022-11-14T07:36:33.999Z,99455.25
2022-11-14T07:38:05.762Z,99447.38
2022-11-14T07:39:28.439Z,99451.63
2022-11-14T07:40:59.874Z,99433.28
2022-11-14T07:42:23.990Z,99426.28
2022-11-14T07:43:46.345Z,99427.72
2022-11-14T07:45:09.778Z,99430.13
2022-11-14T07:46:31.951Z,99427.53
2022-11-14T07:47:56.962Z,99429.97
2022-11-14T07:49:19.188Z,99428.03
2022-11-14T07:50:41.562Z,99427.63
2022-11-14T07:52:03.790Z,99429.06
2022-11-14T07:53:26.190Z,99421.88
2022-11-14T07:54:48.769Z,99419.91
2022-11-14T07:56:11.463Z,99415.56
2022-11-14T07:57:40.328Z,99420.75
2022-11-14T07:59:04.159Z,99423.25
2022-11-14T08:00:25.640Z,99418.72
2022-11-14T08:01:48.172Z,99416.03
2022-11-14T08:03:11.136Z,99416.88
2022-11-14T08:04:33.304Z,99409.09
2022-11-14T08:06:02.161Z,99407.28
2022-11-14T08:07:24.652Z,99415.88
2022-11-14T08:08:47.080Z,99416.72
2022-11-14T08:10:11.570Z,99408.94
2022-11-14T08:11:49.311Z,99414.03
2022-11-14T08:14:55.834Z,99410.56
2022-11-14T08:16:18.350Z,99412.22
2022-11-14T08:17:40.862Z,99407.88
2022-11-14T08:19:03.299Z,99404.25
2022-11-14T08:20:26.443Z,99403.25
2022-11-14T08:21:48.632Z,99404.00
2022-11-14T08:23:11.729Z,99403.00
2022-11-14T08:24:33.853Z,99399.41
2022-11-14T08:25:56.410Z,99398.16
2022-11-14T08:27:18.890Z,99389.09
2022-11-14T08:28:42.530Z,99391.44
2022-11-14T08:30:05.091Z,99384.31
2022-11-14T08:31:27.429Z,99382.38
2022-11-14T08:32:50.000Z,99373.75
2022-11-14T08:34:12.474Z,99386.63
2022-11-14T08:35:35.041Z,99378.84
2022-11-14T08:36:58.539Z,99385.06
2022-11-14T08:38:20.942Z,99378.09
2022-11-14T08:39:43.508Z,99378.00
2022-11-14T08:41:07.037Z,99377.19
2022-11-14T08:42:29.339Z,99377.19
2022-11-14T08:43:53.342Z,99379.69
2022-11-14T08:45:15.868Z,99381.38
2022-11-14T08:46:38.047Z,99381.19
2022-11-14T08:48:00.486Z,99379.25
2022-11-14T08:49:23.073Z,99380.84
2022-11-14T08:50:45.532Z,99378.06
2022-11-14T08:52:12.328Z,99376.97
2022-11-14T08:53:37.731Z,99376.59
2022-11-14T08:55:00.460Z,99382.38
2022-11-14T08:56:24.227Z,99374.41
2022-11-14T08:57:49.444Z,99372.56
2022-11-14T08:59:14.019Z,99370.34
2022-11-14T09:00:36.001Z,99389.16
2022-11-14T09:01:58.468Z,99388.31
2022-11-14T09:03:20.685Z,99389.94
2022-11-14T09:04:43.046Z,99386.22
2022-11-14T09:06:05.461Z,99382.59
2022-11-14T09:07:29.247Z,99383.53
2022-11-14T09:08:51.691Z,99390.50
2022-11-14T09:10:13.996Z,99385.19
2022-11-14T09:11:36.799Z,99389.28
2022-11-14T09:13:00.418Z,99385.59
2022-11-14T09:14:24.480Z,99375.84
2022-11-14T09:15:47.071Z,99373.91
2022-11-14T09:17:09.608Z,99378.16
2022-11-14T09:18:33.102Z,99376.41
2022-11-14T09:19:56.081Z,99378.91
2022-11-14T09:21:18.478Z,99373.53
2022-11-14T09:22:41.402Z,99375.94
2022-11-14T09:24:04.033Z,99372.31
2022-11-14T09:25:27.781Z,99372.16
2022-11-14T09:26:55.201Z,99378.00
2022-11-14T09:28:18.965Z,99369.06
2022-11-14T09:29:42.872Z,99374.25
2022-11-14T09:31:07.243Z,99363.69
2022-11-14T09:32:29.871Z,99369.44
2022-11-14T09:33:52.298Z,99365.81
2022-11-14T09:35:15.180Z,99364.03
2022-11-14T09:36:37.533Z,99363.13
2022-11-14T09:38:03.550Z,99364.81
2022-11-14T09:39:25.923Z,99362.75
2022-11-14T09:41:03.541Z,99368.00
2022-11-14T09:42:36.710Z,99375.34
2022-11-14T09:44:17.758Z,99364.75
2022-11-14T09:45:48.630Z,99359.34
2022-11-14T09:47:18.082Z,99361.56
2022-11-14T09:48:42.849Z,99356.91
2022-11-14T09:50:09.167Z,99345.38
2022-11-14T09:51:33.388Z,99345.38
2022-11-14T09:52:58.151Z,99342.13
2022-11-14T09:54:23.325Z,99340.03
2022-11-14T09:55:45.751Z,99334.00
2022-11-14T09:57:16.121Z,99332.13
2022-11-14T09:58:38.161Z,99331.19
2022-11-14T10:00:00.398Z,99329.25
2022-11-14T10:01:32.550Z,99337.47
2022-11-14T10:03:05.130Z,99336.53
2022-11-14T10:04:38.860Z,99337.84
2022-11-14T10:06:23.724Z,99330.88
2022-11-14T10:07:54.877Z,99324.78
2022-11-14T10:09:43.379Z,99319.22
2022-11-14T10:11:10.288Z,99324.22
2022-11-14T10:12:38.183Z,99328.38
2022-11-14T10:14:18.737Z,99309.13
2022-11-14T10:15:45.741Z,99306.31
2022-11-14T10:17:20.540Z,99308.00
2022-11-14T10:18:56.068Z,99307.66
2022-11-14T10:20:23.793Z,99310.72
2022-11-14T10:21:55.596Z,99309.34
2022-11-14T10:23:27.578Z,99300.28
2022-11-14T10:25:05.478Z,99286.84
2022-11-14T10:26:34.350Z,99291.66
2022-11-14T10:28:07.657Z,99292.06
2022-11-14T10:29:44.519Z,99292.78
2022-11-14T10:31:09.909Z,99299.66
2022-11-14T10:32:46.462Z,99294.06
2022-11-14T10:34:12.711Z,99299.78
2022-11-14T10:35:39.088Z,99291.28
2022-11-14T10:37:04.929Z,99286.59
2022-11-14T10:38:30.128Z,99280.03
2022-11-14T10:39:53.986Z,99283.75
2022-11-14T10:41:34.517Z,99283.22
2022-11-14T10:43:02.636Z,99281.75
2022-11-14T10:44:30.072Z,99285.69
2022-11-14T10:45:55.247Z,99282.84
2022-11-14T10:47:20.329Z,99283.34
2022-11-14T10:48:47.292Z,99283.13
2022-11-14T10:50:20.459Z,99276.97
2022-11-14T10:51:45.292Z,99277.59
2022-11-14T10:53:15.819Z,99273.41
2022-11-14T10:54:42.204Z,99279.69
2022-11-14T10:56:05.489Z,99286.69
2022-11-14T10:57:30.086Z,99276.72
2022-11-14T10:58:52.623Z,99274.75
2022-11-14T11:00:17.845Z,99263.59
2022-11-14T11:01:41.452Z,99260.97
2022-11-14T11:03:03.561Z,99267.00
2022-11-14T11:04:31.789Z,99265.47
2022-11-14T11:05:57.935Z,99252.22
2022-11-14T11:07:42.539Z,99246.91
2022-11-14T11:09:27.174Z,99239.06
2022-11-14T11:11:06.768Z,99237.50
2022-11-14T11:12:43.875Z,99236.69
2022-11-14T11:14:06.393Z,99238.25
2022-11-14T11:15:32.458Z,99244.06
2022-11-14T11:17:10.259Z,99235.91
2022-11-14T11:18:33.721Z,99235.69
2022-11-14T11:20:00.918Z,99238.31
2022-11-14T11:21:26.348Z,99227.88
2022-11-14T11:22:48.871Z,99227.03
2022-11-14T11:24:11.123Z,99225.38
2022-11-14T11:25:34.438Z,99231.19
2022-11-14T11:27:14.514Z,99224.47
2022-11-14T11:28:37.806Z,99220.47
2022-11-14T11:30:19.123Z,99216.56
2022-11-14T11:31:54.783Z,99211.50
2022-11-14T11:33:23.321Z,99208.44
2022-11-14T11:34:45.645Z,99211.44
2022-11-14T11:36:15.320Z,99207.66
2022-11-14T11:37:41.299Z,99199.69
2022-11-14T11:39:03.718Z,99201.22
2022-11-14T11:40:28.329Z,99203.84
2022-11-14T11:43:40.231Z,99199.19
2022-11-14T11:45:07.500Z,99195.38
2022-11-14T11:46:46.702Z,99198.97
2022-11-14T11:48:17.152Z,99194.41
2022-11-14T11:49:50.121Z,99187.97
2022-11-14T11:51:19.058Z,99184.66
2022-11-14T11:52:45.828Z,99177.41
2022-11-14T11:54:15.410Z,99181.53
2022-11-14T11:55:41.379Z,99173.31
2022-11-14T11:57:05.790Z,99175.56
2022-11-14T11:58:31.448Z,99170.66
2022-11-14T11:59:59.049Z,99173.75
2022-11-14T12:01:21.158Z,99175.03
2022-11-14T12:02:50.097Z,99168.22
2022-11-14T12:04:12.939Z,99167.63
2022-11-14T12:05:44.850Z,99170.44
2022-11-14T12:07:15.498Z,99154.94
2022-11-14T12:08:45.406Z,99155.19
2022-11-14T12:10:14.599Z,99156.41
2022-11-14T12:11:39.419Z,99154.13
2022-11-14T12:13:43.810Z,99154.78
2022-11-14T12:15:12.958Z,99158.72
2022-11-14T12:17:02.726Z,99158.97
2022-11-14T12:18:37.160Z,99157.06
2022-11-14T12:20:14.048Z,99144.53
2022-11-14T12:21:58.407Z,99150.38
2022-11-14T12:23:53.948Z,99136.91
2022-11-14T12:25:36.038Z,99140.69
2022-11-14T12:27:06.532Z,99134.97
2022-11-14T12:28:41.922Z,99135.41
2022-11-14T12:30:13.648Z,99127.31
2022-11-14T12:31:38.311Z,99125.81
2022-11-14T12:33:03.567Z,99124.50
2022-11-14T12:34:29.189Z,99129.06
2022-11-14T12:35:53.219Z,99128.44
2022-11-14T12:37:18.321Z,99126.81
2022-11-14T12:38:44.832Z,99131.53
2022-11-14T12:40:09.508Z,99136.94
2022-11-14T12:41:35.348Z,99138.06
2022-11-14T12:42:58.254Z,99135.53
2022-11-14T12:44:33.358Z,99132.69
2022-11-14T12:46:02.765Z,99137.38
2022-11-14T12:47:28.271Z,99133.38
2022-11-14T12:48:50.790Z,99128.28
2022-11-14T12:50:31.509Z,99126.09
2022-11-14T12:51:53.917Z,99124.06
2022-11-14T12:53:46.801Z,99117.72
2022-11-14T12:55:47.853Z,99117.16
2022-11-14T12:57:38.158Z,99116.34
2022-11-14T12:59:29.269Z,99115.47
2022-11-14T13:01:05.235Z,99116.13
2022-11-14T13:03:14.524Z,99116.50
2022-11-14T13:04:45.050Z,99120.59
2022-11-14T13:06:10.236Z,99118.75
2022-11-14T13:07:40.517Z,99109.31
2022-11-14T13:09:34.865Z,99111.16
2022-11-14T13:10:57.467Z,99113.38
2022-11-14T13:12:49.698Z,99113.28
2022-11-14T13:14:29.612Z,99111.50
2022-11-14T13:16:10.732Z,99113.91
2022-11-14T13:17:50.328Z,99110.22
2022-11-14T13:19:37.522Z,99112.19
2022-11-14T13:21:20.852Z,99108.59
2022-11-14T13:22:44.065Z,99109.41
2022-11-14T13:24:07.177Z,99101.88
2022-11-14T13:25:29.498Z,99111.00
2022-11-14T13:26:53.753Z,99109.94
2022-11-14T13:28:49.070Z,99100.16
2022-11-14T13:30:11.344Z,99106.31
2022-11-14T13:31:48.901Z,99102.88
2022-11-14T13:33:11.279Z,99102.94
2022-11-14T13:34:43.663Z,99106.00
2022-11-14T13:36:06.826Z,99101.44
2022-11-14T13:37:41.557Z,99096.53
2022-11-14T13:39:23.914Z,99096.84
2022-11-14T13:40:49.430Z,99100.03
2022-11-14T13:42:28.358Z,99096.59
2022-11-14T13:44:04.348Z,99104.34
2022-11-14T13:45:44.875Z,99096.72
2022-11-14T13:47:20.508Z,99098.81
2022-11-14T13:49:08.586Z,99098.38
2022-11-14T13:50:32.408Z,99100.56
2022-11-14T13:51:55.552Z,99103.84
2022-11-14T13:53:20.229Z,99109.88
2022-11-14T13:54:47.819Z,99098.16
2022-11-14T13:56:17.901Z,99104.88
2022-11-14T13:57:47.290Z,99098.09
2022-11-14T13:59:37.137Z,99098.69
2022-11-14T14:01:10.488Z,99096.38
2022-11-14T14:02:59.360Z,99093.56
2022-11-14T14:04:38.122Z,99090.72
2022-11-14T14:06:12.185Z,99091.91
2022-11-14T14:07:43.843Z,99099.06
2022-11-14T14:09:24.468Z,99091.84
2022-11-14T14:10:56.220Z,99095.84
2022-11-14T14:12:33.191Z,99102.75
2022-11-14T14:14:01.280Z,99097.28
2022-11-14T14:15:29.311Z,99099.81
2022-11-14T14:16:56.868Z,99110.13
2022-11-14T14:18:28.710Z,99095.44
2022-11-14T14:20:01.616Z,99093.66
2022-11-14T14:21:35.893Z,99091.06
2022-11-14T14:23:04.089Z,99090.44
2022-11-14T14:24:37.332Z,99087.13
2022-11-14T14:26:06.783Z,99084.53
2022-11-14T14:27:33.617Z,99087.59
2022-11-14T14:29:06.095Z,99090.19
2022-11-14T14:30:30.208Z,99082.25
2022-11-14T14:31:53.150Z,99082.13
2022-11-14T14:33:16.528Z,99085.97
2022-11-14T14:34:39.751Z,99091.34
2022-11-14T14:36:01.976Z,99087.84
2022-11-14T14:37:25.795Z,99091.06
2022-11-14T14:38:48.845Z,99092.47
2022-11-14T14:40:25.285Z,99085.38
2022-11-14T14:41:47.971Z,99081.34
2022-11-14T14:43:22.323Z,99081.63
2022-11-14T14:44:47.767Z,99085.28
2022-11-14T14:46:11.319Z,99082.59
2022-11-14T14:47:41.342Z,99080.09
2022-11-14T14:49:05.120Z,99074.69
2022-11-14T14:50:30.614Z,99082.16
2022-11-14T14:51:58.088Z,99076.03
2022-11-14T14:53:22.136Z,99079.34
2022-11-14T14:54:55.766Z,99075.88
2022-11-14T14:56:22.380Z,99078.22
2022-11-14T14:57:45.047Z,99074.47
2022-11-14T14:59:20.936Z,99067.38
2022-11-14T15:00:53.004Z,99076.69
2022-11-14T15:02:18.980Z,99077.16
2022-11-14T15:03:43.271Z,99075.06
2022-11-14T15:05:06.044Z,99078.13
2022-11-14T15:06:33.402Z,99075.19
2022-11-14T15:07:58.131Z,99078.25
2022-11-14T15:09:23.378Z,99080.41
2022-11-14T15:10:46.411Z,99082.44
2022-11-14T15:12:09.039Z,99076.72
2022-11-14T15:13:32.453Z,99068.38
2022-11-14T15:14:55.261Z,99073.03
2022-11-14T15:16:17.859Z,99074.22
2022-11-14T15:17:41.952Z,99073.75
2022-11-14T15:19:04.410Z,99069.75
2022-11-14T15:20:28.539Z,99067.38
2022-11-14T15:22:17.960Z,99078.19
2022-11-14T15:23:40.851Z,99074.31
2022-11-14T15:25:08.492Z,99077.25
2022-11-14T15:26:32.100Z,99071.41
2022-11-14T15:27:55.888Z,99073.31
2022-11-14T15:29:19.856Z,99071.88
2022-11-14T15:30:42.201Z,99069.53
2022-11-14T15:32:06.212Z,99073.13
2022-11-14T15:33:31.259Z,99074.22
2022-11-14T15:35:09.843Z,99075.34
2022-11-14T15:36:32.341Z,99071.28
2022-11-14T15:38:41.840Z,99068.84
2022-11-14T15:39:50.674Z,99077.81
2022-11-14T15:41:23.389Z,99068.47
2022-11-14T15:42:45.701Z,99074.75
2022-11-14T15:44:16.252Z,99070.56
2022-11-14T15:45:41.672Z,99062.06
2022-11-14T15:47:04.836Z,99059.56
2022-11-14T15:48:28.549Z,99064.75
2022-11-14T15:49:59.890Z,99061.31
2022-11-14T15:51:43.461Z,99065.63
2022-11-14T15:53:07.139Z,99064.16
2022-11-14T15:54:32.071Z,99056.41
2022-11-14T15:55:54.234Z,99068.59
2022-11-14T15:57:18.089Z,99070.44
2022-11-14T15:58:43.130Z,99066.34
2022-11-14T16:00:13.417Z,99062.09
2022-11-14T16:01:35.568Z,99068.19
2022-11-14T16:02:58.660Z,99070.94
2022-11-14T16:04:21.361Z,99067.63
2022-11-14T16:05:46.406Z,99064.28
2022-11-14T16:07:11.351Z,99070.38
2022-11-14T16:08:33.899Z,99067.88
2022-11-14T16:09:56.430Z,99061.03
2022-11-14T16:11:18.915Z,99060.22
2022-11-14T16:12:41.696Z,99064.47
2022-11-14T16:14:05.705Z,99058.38
2022-11-14T16:15:27.832Z,99060.03
2022-11-14T16:16:50.123Z,99060.03
2022-11-14T16:18:13.532Z,99063.38
2022-11-14T16:19:37.811Z,99066.81
2022-11-14T16:21:03.280Z,99065.97
2022-11-14T16:22:25.331Z,99065.88
2022-11-14T16:23:47.671Z,99067.53
2022-11-14T16:25:16.992Z,99056.25
2022-11-14T16:26:39.884Z,99063.19
2022-11-14T16:28:02.602Z,99067.53
2022-11-14T16:29:25.323Z,99056.25
2022-11-14T16:30:47.713Z,99058.09
2022-11-14T16:32:11.928Z,99059.88
2022-11-14T16:33:34.242Z,99054.13
2022-11-14T16:34:56.469Z,99062.13
2022-11-14T16:36:22.661Z,99066.81
2022-11-14T16:37:45.005Z,99062.81
2022-11-14T16:39:11.680Z,99049.03
2022-11-14T16:40:34.193Z,99056.06
2022-11-14T16:42:01.896Z,99064.75
2022-11-14T16:43:26.031Z,99055.22
2022-11-14T16:44:50.773Z,99049.13
2022-11-14T16:46:14.380Z,99057.72
2022-11-14T16:47:38.797Z,99064.56
2022-11-14T16:49:01.170Z,99048.97
2022-11-14T16:50:23.251Z,99059.22
2022-11-14T16:51:49.965Z,99054.78
2022-11-14T16:53:12.531Z,99057.31